createdAt,value
2022-09-13T00:01:11.104Z,17.26
2022-09-13T00:03:39.473Z,17.20
2022-09-13T00:06:14.077Z,17.22
2022-09-13T00:08:44.704Z,17.16
2022-09-13T00:11:18.508Z,17.15
2022-09-13T00:13:47.629Z,17.15
2022-09-13T00:16:19.014Z,17.14
2022-09-13T00:18:48.248Z,17.11
2022-09-13T00:21:19.127Z,17.03
2022-09-13T00:23:52.040Z,16.96
2022-09-13T00:26:23.110Z,16.95
2022-09-13T00:28:52.727Z,16.95
2022-09-13T00:31:23.424Z,16.88
2022-09-13T00:33:52.646Z,16.84
2022-09-13T00:36:21.313Z,16.75
2022-09-13T00:38:51.123Z,16.73
2022-09-13T00:41:21.724Z,16.68
2022-09-13T00:43:53.230Z,16.67
2022-09-13T00:46:32.503Z,16.62
2022-09-13T00:49:20.132Z,16.56
2022-09-13T00:51:55.489Z,16.50
2022-09-13T00:54:31.119Z,16.44
2022-09-13T00:57:03.526Z,16.37
2022-09-13T00:59:36.576Z,16.32
2022-09-13T01:02:05.973Z,16.22
2022-09-13T01:04:37.886Z,16.17
2022-09-13T01:07:10.855Z,16.14
2022-09-13T01:09:44.184Z,16.12
2022-09-13T01:12:26.227Z,16.04
2022-09-13T01:14:56.821Z,16.02
2022-09-13T01:17:25.192Z,15.91
2022-09-13T01:19:53.537Z,15.92
2022-09-13T01:23:27.393Z,15.84
2022-09-13T01:26:43.785Z,15.84
2022-09-13T01:29:48.590Z,15.93
2022-09-13T01:32:29.025Z,16.05
2022-09-13T01:35:08.225Z,16.09
2022-09-13T01:37:53.062Z,16.04
2022-09-13T01:40:36.592Z,16.04
2022-09-13T01:43:27.617Z,16.07
2022-09-13T01:46:06.319Z,16.09
2022-09-13T01:48:54.045Z,16.02
2022-09-13T01:51:29.883Z,16.01
2022-09-13T01:54:15.323Z,16.00
2022-09-13T01:56:56.143Z,15.91
2022-09-13T01:59:31.460Z,15.86
2022-09-13T02:02:06.259Z,15.82
2022-09-13T02:04:42.764Z,15.81
2022-09-13T02:07:17.779Z,15.78
2022-09-13T02:09:50.564Z,15.89
2022-09-13T02:12:23.049Z,15.87
2022-09-13T02:15:00.670Z,15.92
2022-09-13T02:17:35.395Z,15.97
2022-09-13T02:20:11.932Z,15.99
2022-09-13T02:22:46.937Z,15.99
2022-09-13T02:25:18.844Z,16.01
2022-09-13T02:27:58.002Z,16.00
2022-09-13T02:30:27.261Z,16.01
2022-09-13T02:32:58.771Z,16.02
2022-09-13T02:35:35.372Z,16.05
2022-09-13T02:38:09.335Z,16.03
2022-09-13T02:40:44.315Z,15.97
2022-09-13T02:43:18.785Z,15.97
2022-09-13T02:45:53.405Z,15.91
2022-09-13T02:48:31.639Z,15.87
2022-09-13T02:51:08.457Z,15.86
2022-09-13T02:53:44.096Z,15.94
2022-09-13T02:56:22.746Z,15.98
2022-09-13T02:58:58.931Z,15.95
2022-09-13T03:01:27.480Z,15.98
2022-09-13T03:03:55.927Z,15.96
2022-09-13T03:06:29.150Z,16.10
2022-09-13T03:09:02.920Z,16.06
2022-09-13T03:11:49.145Z,15.85
2022-09-13T03:14:33.960Z,16.12
2022-09-13T03:17:31.636Z,16.23
2022-09-13T03:20:10.787Z,16.15
2022-09-13T03:23:23.429Z,15.90
2022-09-13T03:26:23.405Z,15.85
2022-09-13T03:29:07.532Z,15.86
2022-09-13T03:31:43.778Z,15.78
2022-09-13T03:34:18.005Z,15.75
2022-09-13T03:36:54.194Z,15.80
2022-09-13T03:39:34.227Z,15.78
2022-09-13T03:42:07.710Z,15.77
2022-09-13T03:44:37.941Z,15.74
2022-09-13T03:47:07.827Z,15.68
2022-09-13T03:49:40.002Z,15.71
2022-09-13T03:52:09.182Z,15.83
2022-09-13T03:54:40.299Z,15.94
2022-09-13T03:57:14.275Z,15.92
2022-09-13T03:59:47.251Z,15.73
2022-09-13T04:02:17.076Z,15.57
2022-09-13T04:04:46.817Z,15.45
2022-09-13T04:07:18.088Z,15.38
2022-09-13T04:09:48.177Z,15.35
2022-09-13T04:12:18.058Z,15.34
2022-09-13T04:14:46.664Z,15.30
2022-09-13T04:17:15.624Z,15.27
2022-09-13T04:19:47.110Z,15.22
2022-09-13T04:22:15.943Z,15.22
2022-09-13T04:24:44.460Z,15.17
2022-09-13T04:27:14.652Z,15.12
2022-09-13T04:29:42.939Z,15.08
2022-09-13T04:32:11.577Z,15.05
2022-09-13T04:34:40.489Z,15.03
2022-09-13T04:37:09.996Z,15.03
2022-09-13T04:39:38.271Z,15.08
2022-09-13T04:42:08.294Z,15.05
2022-09-13T04:44:38.284Z,14.99
2022-09-13T04:47:08.329Z,15.04
2022-09-13T04:49:36.765Z,15.03
2022-09-13T04:52:05.170Z,15.03
2022-09-13T04:54:33.591Z,15.00
2022-09-13T04:57:01.919Z,15.03
2022-09-13T04:59:30.210Z,15.10
2022-09-13T05:02:00.048Z,15.11
2022-09-13T05:04:28.408Z,15.14
2022-09-13T05:06:57.772Z,15.13
2022-09-13T05:09:26.541Z,15.10
2022-09-13T05:11:54.866Z,15.06
2022-09-13T05:14:23.365Z,15.11
2022-09-13T05:16:51.662Z,15.13
2022-09-13T05:19:21.406Z,15.20
2022-09-13T05:21:49.706Z,15.23
2022-09-13T05:24:18.073Z,15.23
2022-09-13T05:26:46.406Z,15.19
2022-09-13T05:29:14.879Z,15.27
2022-09-13T05:31:43.906Z,15.30
2022-09-13T05:34:15.104Z,15.30
2022-09-13T05:36:45.635Z,15.26
2022-09-13T05:42:06.956Z,15.31
2022-09-13T05:44:35.287Z,15.39
2022-09-13T05:47:03.661Z,15.43
2022-09-13T05:49:32.018Z,15.50
2022-09-13T05:52:01.709Z,15.65
2022-09-13T05:54:30.082Z,15.64
2022-09-13T05:56:58.542Z,15.66
2022-09-13T05:59:26.902Z,15.65
2022-09-13T06:01:55.290Z,15.66
2022-09-13T06:04:23.823Z,15.65
2022-09-13T06:06:52.155Z,15.71
2022-09-13T06:09:21.877Z,15.75
2022-09-13T06:11:50.325Z,15.75
2022-09-13T06:14:18.733Z,15.78
2022-09-13T06:16:46.992Z,15.85
2022-09-13T06:19:15.312Z,15.85
2022-09-13T06:21:44.072Z,15.87
2022-09-13T06:24:12.518Z,15.81
2022-09-13T06:26:42.154Z,15.82
2022-09-13T06:29:12.884Z,15.85
2022-09-13T06:31:44.670Z,15.88
2022-09-13T06:34:15.636Z,15.92
2022-09-13T06:36:44.132Z,16.10
2022-09-13T06:39:12.427Z,16.14
2022-09-13T06:41:42.216Z,16.21
2022-09-13T06:44:11.158Z,16.25
2022-09-13T06:46:39.512Z,16.30
2022-09-13T06:49:09.543Z,16.35
2022-09-13T06:51:38.171Z,16.35
2022-09-13T06:54:07.502Z,16.31
2022-09-13T06:56:37.667Z,16.32
2022-09-13T06:59:10.782Z,16.35
2022-09-13T07:01:41.484Z,16.40
2022-09-13T07:04:12.588Z,16.50
2022-09-13T07:06:43.197Z,16.60
2022-09-13T07:09:15.595Z,16.63
2022-09-13T07:11:44.079Z,16.64
2022-09-13T07:14:17.799Z,16.73
2022-09-13T07:16:46.929Z,16.70
2022-09-13T07:19:18.447Z,16.75
2022-09-13T07:21:48.847Z,16.81
2022-09-13T07:24:17.807Z,16.92
2022-09-13T07:26:46.811Z,16.93
2022-09-13T07:29:19.260Z,16.96
2022-09-13T07:31:50.359Z,16.99
2022-09-13T07:34:21.386Z,17.11
2022-09-13T07:36:50.393Z,17.10
2022-09-13T07:39:22.732Z,17.12
2022-09-13T07:41:53.612Z,17.10
2022-09-13T07:44:23.910Z,17.08
2022-09-13T07:46:52.296Z,17.02
2022-09-13T07:49:21.736Z,17.09
2022-09-13T07:51:51.394Z,17.08
2022-09-13T07:54:20.870Z,17.12
2022-09-13T07:56:51.764Z,17.14
2022-09-13T07:59:22.887Z,17.24
2022-09-13T08:01:53.466Z,17.30
2022-09-13T08:04:26.418Z,17.37
2022-09-13T08:06:54.859Z,17.46
2022-09-13T08:09:23.342Z,17.57
2022-09-13T08:11:53.586Z,17.63
2022-09-13T08:14:24.582Z,17.65
2022-09-13T08:16:56.287Z,17.65
2022-09-13T08:19:24.612Z,17.77
2022-09-13T08:21:52.912Z,17.92
2022-09-13T08:24:22.966Z,18.02
2022-09-13T08:26:52.144Z,18.09
2022-09-13T08:29:22.291Z,18.05
2022-09-13T08:31:50.576Z,17.93
2022-09-13T08:34:21.231Z,18.05
2022-09-13T08:36:49.594Z,18.00
2022-09-13T08:39:18.040Z,17.98
2022-09-13T08:42:23.994Z,18.07
2022-09-13T08:44:55.988Z,18.28
2022-09-13T08:47:35.635Z,18.31
2022-09-13T08:50:13.945Z,18.44
2022-09-13T08:52:50.808Z,18.49
2022-09-13T08:55:33.113Z,18.80
2022-09-13T08:58:14.539Z,19.12
2022-09-13T09:00:51.463Z,19.38
2022-09-13T09:03:31.378Z,19.52
2022-09-13T09:05:59.901Z,19.49
2022-09-13T09:08:34.565Z,19.41
2022-09-13T09:11:10.133Z,19.25
2022-09-13T09:13:43.812Z,19.34
2022-09-13T09:16:31.280Z,19.20
2022-09-13T09:19:16.365Z,19.17
2022-09-13T09:21:46.633Z,18.85
2022-09-13T09:24:21.150Z,18.73
2022-09-13T09:26:49.739Z,18.69
2022-09-13T09:29:25.054Z,18.57
2022-09-13T09:32:17.077Z,18.54
2022-09-13T09:35:09.017Z,18.43
2022-09-13T09:37:39.581Z,18.44
2022-09-13T09:40:13.557Z,18.32
2022-09-13T09:42:45.064Z,18.33
2022-09-13T09:45:27.991Z,18.15
2022-09-13T09:48:02.649Z,18.10
2022-09-13T09:50:35.012Z,18.22
2022-09-13T09:53:08.754Z,18.28
2022-09-13T09:55:46.845Z,18.30
2022-09-13T09:58:16.981Z,18.47
2022-09-13T10:00:54.798Z,18.38
2022-09-13T10:03:28.213Z,18.32
2022-09-13T10:06:08.494Z,18.32
2022-09-13T10:08:39.538Z,18.30
2022-09-13T10:11:08.253Z,18.28
2022-09-13T10:13:36.877Z,18.10
2022-09-13T10:16:07.957Z,18.12
2022-09-13T10:18:46.167Z,18.06
2022-09-13T10:21:25.953Z,18.16
2022-09-13T10:24:19.165Z,18.23
2022-09-13T10:26:47.817Z,18.31
2022-09-13T10:29:18.792Z,18.37
2022-09-13T10:31:50.060Z,18.55
2022-09-13T10:34:24.835Z,18.61
2022-09-13T10:36:58.578Z,18.65
2022-09-13T10:39:29.837Z,18.68
2022-09-13T10:42:01.485Z,18.70
2022-09-13T10:44:41.715Z,18.76
2022-09-13T10:47:21.522Z,18.79
2022-09-13T10:49:54.477Z,18.88
2022-09-13T10:52:35.719Z,19.11
2022-09-13T10:55:33.991Z,19.32
2022-09-13T10:58:21.616Z,19.33
2022-09-13T11:01:17.987Z,19.31
2022-09-13T11:04:23.931Z,19.26
2022-09-13T11:07:03.166Z,19.43
2022-09-13T11:09:37.830Z,19.66
2022-09-13T11:12:19.047Z,19.88
2022-09-13T11:15:04.270Z,19.67
2022-09-13T11:17:56.758Z,19.68
2022-09-13T11:20:41.250Z,19.70
2022-09-13T11:23:38.128Z,19.73
2022-09-13T11:26:38.489Z,19.93
2022-09-13T11:29:24.809Z,20.02
2022-09-13T11:32:05.009Z,20.01
2022-09-13T11:34:51.386Z,19.95
2022-09-13T11:37:45.380Z,20.09
2022-09-13T11:40:36.355Z,20.13
2022-09-13T11:43:24.081Z,20.23
2022-09-13T11:46:04.798Z,20.07
2022-09-13T11:49:17.367Z,20.21
2022-09-13T11:51:59.267Z,20.36
2022-09-13T11:54:48.408Z,20.18
2022-09-13T11:57:22.884Z,20.14
2022-09-13T11:59:55.859Z,20.00
2022-09-13T12:02:30.565Z,20.18
2022-09-13T12:05:21.448Z,20.09
2022-09-13T12:07:55.226Z,20.23
2022-09-13T12:10:28.036Z,20.34
2022-09-13T12:13:01.621Z,20.44
2022-09-13T12:15:38.362Z,20.51
2022-09-13T12:18:14.667Z,20.60
2022-09-13T12:20:51.468Z,20.49
2022-09-13T12:23:26.437Z,20.54
2022-09-13T12:26:00.318Z,20.65
2022-09-13T12:28:35.682Z,20.81
2022-09-13T12:31:10.876Z,20.84
2022-09-13T12:33:41.903Z,21.11
2022-09-13T12:36:45.234Z,21.35
2022-09-13T12:39:46.584Z,21.39
2022-09-13T12:43:00.808Z,21.25
2022-09-13T12:46:01.831Z,21.34
2022-09-13T12:49:10.085Z,21.38
2022-09-13T12:52:00.457Z,21.29
2022-09-13T12:55:04.267Z,21.12
2022-09-13T12:57:42.451Z,21.20
2022-09-13T13:00:21.955Z,21.08
2022-09-13T13:03:11.984Z,21.10
2022-09-13T13:05:44.471Z,21.16
2022-09-13T13:08:30.096Z,21.24
2022-09-13T13:11:05.847Z,21.24
2022-09-13T13:13:40.032Z,21.24
2022-09-13T13:16:27.472Z,21.27
2022-09-13T13:18:58.680Z,21.33
2022-09-13T13:21:39.975Z,21.38
2022-09-13T13:24:42.616Z,21.54
2022-09-13T13:27:48.571Z,21.70
2022-09-13T13:30:53.698Z,21.73
2022-09-13T13:33:27.866Z,21.55
2022-09-13T13:35:57.849Z,21.51
2022-09-13T13:38:48.833Z,21.61
2022-09-13T13:41:48.706Z,21.64
2022-09-13T13:45:09.655Z,21.63
2022-09-13T13:48:16.411Z,21.70
2022-09-13T13:51:24.596Z,21.66
2022-09-13T13:56:50.071Z,21.75
2022-09-13T13:59:24.737Z,21.45
2022-09-13T14:01:59.436Z,21.58
2022-09-13T14:05:09.347Z,21.61
2022-09-13T14:08:03.715Z,21.78
2022-09-13T14:10:44.245Z,21.75
2022-09-13T14:13:31.477Z,21.75
2022-09-13T14:16:08.254Z,21.82
2022-09-13T14:19:11.524Z,21.82
2022-09-13T14:21:39.952Z,21.58
2022-09-13T14:24:22.838Z,21.47
2022-09-13T14:26:53.882Z,21.43
2022-09-13T14:29:25.813Z,21.38
2022-09-13T14:31:57.014Z,21.28
2022-09-13T14:34:30.781Z,21.23
2022-09-13T14:37:02.324Z,21.29
2022-09-13T14:39:32.751Z,21.26
2022-09-13T14:42:14.285Z,21.14
2022-09-13T14:44:48.248Z,21.02
2022-09-13T14:47:23.551Z,21.00
2022-09-13T14:50:00.022Z,20.88
2022-09-13T14:52:33.474Z,20.83
2022-09-13T14:55:09.851Z,20.80
2022-09-13T14:57:42.972Z,20.68
2022-09-13T15:00:20.081Z,20.63
2022-09-13T15:02:51.662Z,20.67
2022-09-13T15:05:23.047Z,20.68
2022-09-13T15:07:51.705Z,20.68
2022-09-13T15:10:28.570Z,20.65
2022-09-13T15:13:09.973Z,20.69
2022-09-13T15:15:39.768Z,20.68
2022-09-13T15:18:25.631Z,20.67
2022-09-13T15:20:56.920Z,20.68
2022-09-13T15:23:28.154Z,20.67
2022-09-13T15:26:02.695Z,20.63
2022-09-13T15:28:34.559Z,20.54
2022-09-13T15:31:03.706Z,20.60
2022-09-13T15:33:34.366Z,20.60
2022-09-13T15:36:29.980Z,20.58
2022-09-13T15:39:03.263Z,20.57
2022-09-13T15:41:36.081Z,20.55
2022-09-13T15:44:07.271Z,20.47
2022-09-13T15:46:46.031Z,20.45
2022-09-13T15:49:19.335Z,20.39
2022-09-13T15:51:48.431Z,20.35
2022-09-13T15:54:18.615Z,20.36
2022-09-13T15:56:51.466Z,20.30
2022-09-13T15:59:22.086Z,20.29
2022-09-13T16:01:52.595Z,20.28
2022-09-13T16:04:21.226Z,20.27
2022-09-13T16:06:49.547Z,20.30
2022-09-13T16:09:20.550Z,20.30
2022-09-13T16:11:52.066Z,20.28
2022-09-13T16:14:21.335Z,20.27
2022-09-13T16:16:49.915Z,20.27
2022-09-13T16:19:20.553Z,20.27
2022-09-13T16:21:49.750Z,20.23
2022-09-13T16:24:18.294Z,20.22
2022-09-13T16:26:46.542Z,20.22
2022-09-13T16:29:16.242Z,20.15
2022-09-13T16:31:44.640Z,20.19
2022-09-13T16:34:13.061Z,20.12
2022-09-13T16:36:41.497Z,20.11
2022-09-13T16:39:10.052Z,20.04
2022-09-13T16:41:40.302Z,19.99
2022-09-13T16:44:08.904Z,19.94
2022-09-13T16:46:38.803Z,19.96
2022-09-13T16:49:07.590Z,19.93
2022-09-13T16:51:36.651Z,19.92
2022-09-13T16:54:06.287Z,19.94
2022-09-13T16:56:34.601Z,19.94
2022-09-13T16:59:03.036Z,19.91
2022-09-13T17:01:31.737Z,19.91
2022-09-13T17:04:01.936Z,19.91
2022-09-13T17:06:30.344Z,19.89
2022-09-13T17:09:01.699Z,19.81
2022-09-13T17:11:33.404Z,19.84
2022-09-13T17:14:04.289Z,19.81
2022-09-13T17:16:37.204Z,19.74
2022-09-13T17:19:10.241Z,19.67
2022-09-13T17:21:40.060Z,19.67
2022-09-13T17:24:13.231Z,19.70
2022-09-13T17:26:42.457Z,19.70
2022-09-13T17:29:12.745Z,19.71
2022-09-13T17:31:43.362Z,19.68
2022-09-13T17:34:14.154Z,19.69
2022-09-13T17:36:42.829Z,19.68
2022-09-13T17:39:12.109Z,19.69
2022-09-13T17:41:40.396Z,19.64
2022-09-13T17:44:13.390Z,19.63
2022-09-13T17:46:41.807Z,19.65
2022-09-13T17:49:12.323Z,19.63
2022-09-13T17:51:45.290Z,19.64
2022-09-13T17:54:17.098Z,19.62
2022-09-13T17:56:46.405Z,19.61
2022-09-13T17:59:17.017Z,19.60
2022-09-13T18:01:47.771Z,19.57
2022-09-13T18:04:23.344Z,19.51
2022-09-13T18:06:52.865Z,19.55
2022-09-13T18:09:22.147Z,19.50
2022-09-13T18:11:55.760Z,19.41
2022-09-13T18:14:26.548Z,19.42
2022-09-13T18:16:57.370Z,19.42
2022-09-13T18:19:44.857Z,19.43
2022-09-13T18:22:14.476Z,19.37
2022-09-13T18:24:42.770Z,19.36
2022-09-13T18:27:11.096Z,19.34
2022-09-13T18:29:39.604Z,19.33
2022-09-13T18:32:08.237Z,19.28
2022-09-13T18:34:37.965Z,19.23
2022-09-13T18:37:06.386Z,19.20
2022-09-13T18:39:35.733Z,19.20
2022-09-13T18:42:04.324Z,19.15
2022-09-13T18:44:33.979Z,19.14
2022-09-13T18:47:03.812Z,19.12
2022-09-13T18:49:32.224Z,19.09
2022-09-13T18:52:01.965Z,19.04
2022-09-13T18:54:30.290Z,19.01
2022-09-13T18:56:58.621Z,18.98
2022-09-13T18:59:27.753Z,18.99
2022-09-13T19:01:56.500Z,19.05
2022-09-13T19:04:25.134Z,19.06
2022-09-13T19:06:56.122Z,19.07
2022-09-13T19:09:26.502Z,19.09
2022-09-13T19:11:55.668Z,19.10
2022-09-13T19:14:25.991Z,19.06
2022-09-13T19:16:56.904Z,18.99
2022-09-13T19:19:25.626Z,18.93
2022-09-13T19:21:53.907Z,18.88
2022-09-13T19:24:22.498Z,18.87
2022-09-13T19:26:53.400Z,18.92
2022-09-13T19:29:23.744Z,18.94
2022-09-13T19:31:55.801Z,19.02
2022-09-13T19:34:24.801Z,19.11
2022-09-13T19:36:57.968Z,19.13
2022-09-13T19:39:30.025Z,19.16
2022-09-13T19:42:00.917Z,19.15
2022-09-13T19:44:29.727Z,19.17
2022-09-13T19:47:42.799Z,19.17
2022-09-13T19:49:49.548Z,19.21
2022-09-13T19:52:18.183Z,19.21
2022-09-13T19:54:46.495Z,19.24
2022-09-13T19:57:16.148Z,19.28
2022-09-13T19:59:44.650Z,19.24
2022-09-13T20:02:13.058Z,19.15
2022-09-13T20:04:41.960Z,19.14
2022-09-13T20:07:12.292Z,19.12
2022-09-13T20:09:42.370Z,19.12
2022-09-13T20:12:12.690Z,19.06
2022-09-13T20:14:42.503Z,19.02
2022-09-13T20:17:10.896Z,19.06
2022-09-13T20:19:44.740Z,19.09
2022-09-13T20:22:15.303Z,19.06
2022-09-13T20:24:43.786Z,19.02
2022-09-13T20:27:12.469Z,19.00
2022-09-13T20:29:42.210Z,18.97
2022-09-13T20:32:11.298Z,18.98
2022-09-13T20:34:39.766Z,19.01
2022-09-13T20:37:08.157Z,18.98
2022-09-13T20:39:36.615Z,18.98
2022-09-13T20:42:05.503Z,18.98
2022-09-13T20:44:33.939Z,18.99
2022-09-13T20:47:03.786Z,18.97
2022-09-13T20:49:32.199Z,18.96
2022-09-13T20:52:00.887Z,18.93
2022-09-13T20:54:29.258Z,18.91
2022-09-13T20:56:58.245Z,18.95
2022-09-13T20:59:27.057Z,18.98
2022-09-13T21:01:55.882Z,18.96
2022-09-13T21:04:25.767Z,18.97
2022-09-13T21:07:14.669Z,18.99
2022-09-13T21:09:43.605Z,18.93
2022-09-13T21:12:12.014Z,18.90
2022-09-13T21:14:40.475Z,18.89
2022-09-13T21:17:08.959Z,18.84
2022-09-13T21:19:38.860Z,18.83
2022-09-13T21:22:07.411Z,18.75
2022-09-13T21:24:35.804Z,18.69
2022-09-13T21:27:05.008Z,18.68
2022-09-13T21:29:34.561Z,18.59
2022-09-13T21:32:04.023Z,18.57
2022-09-13T21:34:32.998Z,18.55
2022-09-13T21:37:02.800Z,18.56
2022-09-13T21:39:31.508Z,18.53
2022-09-13T21:41:59.914Z,18.53
2022-09-13T21:44:29.091Z,18.54
2022-09-13T21:46:57.444Z,18.53
2022-09-13T21:49:25.885Z,18.57
2022-09-13T21:51:55.113Z,18.50
2022-09-13T21:54:24.815Z,18.51
2022-09-13T21:56:55.097Z,18.47
2022-09-13T21:59:24.786Z,18.47
2022-09-13T22:01:54.882Z,18.37
2022-09-13T22:04:27.502Z,18.43
2022-09-13T22:06:56.637Z,18.46
2022-09-13T22:09:28.473Z,18.43
2022-09-13T22:11:57.432Z,18.38
2022-09-13T22:14:26.677Z,18.41
2022-09-13T22:16:55.081Z,18.46
2022-09-13T22:19:26.184Z,18.41
2022-09-13T22:21:58.845Z,18.43
2022-09-13T22:24:31.941Z,18.38
2022-09-13T22:27:01.140Z,18.34
2022-09-13T22:29:30.003Z,18.34
2022-09-13T22:31:58.527Z,18.36
2022-09-13T22:34:30.945Z,18.30
2022-09-13T22:37:00.065Z,18.28
2022-09-13T22:39:29.785Z,18.27
2022-09-13T22:41:58.151Z,18.24
2022-09-13T22:44:26.663Z,18.15
2022-09-13T22:46:54.962Z,18.10
2022-09-13T22:49:23.433Z,18.09
2022-09-13T22:51:51.704Z,18.10
2022-09-13T22:54:20.999Z,18.08
2022-09-13T22:56:50.746Z,18.12
2022-09-13T22:59:21.692Z,18.17
2022-09-13T23:01:50.637Z,18.24
2022-09-13T23:04:19.224Z,18.24
2022-09-13T23:06:48.777Z,18.25
2022-09-13T23:09:19.384Z,18.28
2022-09-13T23:11:48.365Z,18.22
2022-09-13T23:14:19.972Z,18.17
2022-09-13T23:16:51.314Z,18.11
2022-09-13T23:19:22.502Z,18.13
2022-09-13T23:21:53.282Z,18.14
2022-09-13T23:24:21.823Z,18.11
2022-09-13T23:26:50.190Z,18.14
2022-09-13T23:29:21.128Z,18.08
2022-09-13T23:31:50.673Z,17.96
2022-09-13T23:34:19.580Z,17.95
2022-09-13T23:36:48.433Z,17.98
2022-09-13T23:39:19.614Z,17.97
2022-09-13T23:41:51.016Z,17.98
2022-09-13T23:44:21.007Z,17.93
2022-09-13T23:46:58.130Z,17.90
2022-09-13T23:49:26.553Z,17.83
2022-09-13T23:51:54.964Z,17.88
2022-09-13T23:54:23.293Z,17.89
2022-09-13T23:56:51.650Z,17.93
2022-09-13T23:59:21.356Z,17.94
